San Angelo, TX

6:50 AM CDT on May 25, 2015 (GMT -0500)
Avenger | | Change Station
CLOSE
Current Station
Airport
Location: Sweetwater,
Elevation: 2379 ft
Nearby Weather Stations

Elev 2379 ft 32.47 °N, 100.47 °W | Updated 15 minutes ago

Mostly Cloudy
Mostly Cloudy
67 °F
Feels Like 67 °F
N
13
Wind Variable Wind from South
Gusts 20 mph

Today
High -- | Low -- °F
--% Chance of Precip.
Yesterday
High -- | Low -- °F
Precip. -- in
6:40 AM 8:37 PM
Waxing Crescent, 48% visible
Pressure 29.86 in
Visibility 10.0 miles
Clouds Clear
Dew Point 67 °F
Humidity 100%
Rainfall 0.00 in
Snow Depth Not available.
UV 0 out of 12
Pollen 3.30 out of 12
Air Quality Not available.
Flu Activity Sporadic
METAR KSWW 251135Z AUTO 17011G17KT 10SM CLR 20/20 A2986 RMK AO2 LTG DSNT W T01950195

More Conditions Fewer Conditions

Pressure 29.86 in
Visibility 10.0 miles
Clouds Clear
Dew Point 67 °F
Humidity 100%
Rainfall 0.00 in
Snow Depth Not available.
UV 0 out of 12
Pollen 3.30 out of 12
Air Quality Not available.
Flu Activity Sporadic
METAR KSWW 251135Z AUTO 17011G17KT 10SM CLR 20/20 A2986 RMK AO2 LTG DSNT W T01950195

More Conditions Fewer Conditions

Nowcast | as of 6:49 am CDT on May 25, 2015

Flash Flood Watch in effect until 4 PM CDT this afternoon... Scattered showers and thunderstorms...developing from Eldorado to Sonora to 20 miles southeast of Sonora will move northeast at 30 mph. Rainfall amounts up to 1/4 inch are possible through 8 am.

×

10-Day Weather Forecast

Almanac

Astronomy

May. 25, 2015 Rise Set
Actual Time
Civil Twilight
Nautical Twilight
Astronomical Twilight
Moon
Length of Visible Light
Length of Day
Tomorrow will be .
, % of the Moon is Illuminated

Today's Extremes

State Highs State Lows

Community

WunderPhotos

Upload Photos

1,823,981 photos uploaded!

WunderBlogs® & News

Nearby

Air Quality

  Air Quality AQ Index Pollutant
Not available.

Snow Depth

Station Depth Elevation

Earthquake Activity

City Distance Mag. Time & Date
Minimum magnitude displayed is 2.5.

Coastal Water Temperatures

Place Temperature

Stations

Nearby Weather Stations

Station Location Temp. Windchill Dew Point Humidity Wind Precip. Elev Updated Type